• Join FlightAware (Why Join?)
  • Login
  • US Flag 
 
02:27AM EST


 

Airport Tracker/Info


-or-


 

Live Flight TrackerFlight Track Log ✈ BJS438 ✈ 28-Aug-2013 ✈ KORD - KICT

Flight Track Log - Related Links

Times and Time Zones

All times are in EDT time to prevent confusion due to time zone crossing. See the BJS438 flight status page for this flight to view local times or setup timezone preferences in your user account.

Time Position Orientation Groundspeed Altitude Reporting Facility
EDT Latitude Longitude Course Direction KTS MPH feet Rate Location/Type
01:43PM 42.0592 -87.9903 254° West 189 217 4,600  Level Chicago Center
01:44PM 42.1311 -88.0539 327° Northwest 260 299 8,300 3,660 Climbing Chicago Center
01:45PM 42.1481 -88.1483 284° West 291 335 12,200 2,220 Climbing Chicago Center
01:46PM 42.1069 -88.2519 242° Southwest 315 362 13,000 1,080 Climbing Chicago Center
01:47PM 42.0475 -88.3403 228° Southwest 321 369 14,500 2,700 Climbing Chicago Center
01:48PM 41.7875 -88.6905 254° West  Level FlightAware Approximate
01:48PM 41.9672 -88.4553 227° Southwest 354 407 18,600  Level Chicago Center
01:49PM 41.9311 -88.5744 248° West 349 402 21,300 2,760 Climbing Chicago Center
01:50PM 41.8972 -88.7000 250° West 359 413 24,400 2,760 Climbing Chicago Center
01:51PM 41.8597 -88.8303 249° West 373 429 27,100 2,520 Climbing Chicago Center
01:52PM 41.8214 -88.9642 249° West 384 442 29,700 2,220 Climbing Chicago Center
01:53PM 41.7739 -89.1247 248° West 389 448 31,800 1,500 Climbing Chicago Center
01:54PM 41.7331 -89.2722 250° West 422 486 32,900 1,500 Climbing Chicago Center
01:55PM 41.6886 -89.4181 248° West 427 491 34,900 1,500 Climbing Chicago Center
01:56PM 41.6428 -89.5769 249° West 423 487 36,000 480 Climbing Chicago Center
01:57PM 41.5986 -89.7219 248° West 423 487 36,000  Level Chicago Center
01:58PM 41.5561 -89.8661 249° West 420 483 36,100 600 Climbing Chicago Center
01:59PM 41.5117 -90.0161 248° West 433 498 37,300 1,380 Climbing Chicago Center
02:00PM 41.4678 -90.1622 248° West 429 494 39,000 1,620 Climbing Chicago Center
02:02PM 41.4147 -90.3361 248° West 425 489 40,700 1,380 Climbing Chicago Center
02:03PM 41.3717 -90.4794 248° West 422 486 41,900 1,020 Climbing Chicago Center
02:04PM 41.3281 -90.6206 248° West 417 480 42,900 480 Climbing Chicago Center
02:05PM 41.2558 -90.7500 233° Southwest 428 493 43,000  Climbing Chicago Center
02:06PM 41.1839 -90.8714 232° Southwest 425 489 43,000  Level Chicago Center
02:07PM 41.1006 -91.0136 232° Southwest 419 482 43,000  Level Chicago Center
02:08PM 41.0303 -91.1311 232° Southwest 411 473 43,000  Level Chicago Center
02:09PM 40.9589 -91.2492 231° Southwest 411 473 43,000  Level Chicago Center
02:10PM 40.8875 -91.3681 232° Southwest 417 480 43,000  Level Chicago Center
02:11PM 40.8164 -91.4839 231° Southwest 414 476 43,000  Level Chicago Center
02:12PM 40.7331 -91.6225 232° Southwest 406 467 43,000  Level Chicago Center
02:13PM 40.6631 -91.7386 232° Southwest 406 467 43,000  Level Chicago Center
02:14PM 40.6058 -91.8300 231° Southwest 408 470 43,000  Level Kansas City Center
02:15PM 40.5336 -91.9478 231° Southwest 413 475 43,000  Level Kansas City Center
02:16PM 40.4611 -92.0656 231° Southwest 416 479 43,000  Level Kansas City Center
02:17PM 40.3881 -92.1836 231° Southwest 418 481 43,000  Level Kansas City Center
02:18PM 40.3008 -92.3231 231° Southwest 414 476 43,000  Level Kansas City Center
02:19PM 40.2225 -92.4439 230° Southwest 412 474 43,000  Level Kansas City Center
02:20PM 40.1531 -92.5581 232° Southwest 415 478 43,000  Level Kansas City Center
02:21PM 40.0961 -92.6828 239° Southwest 417 480 43,000  Level Kansas City Center
02:22PM 40.0431 -92.8281 245° Southwest 414 476 43,000  Level Kansas City Center
02:23PM 39.9917 -92.9619 243° Southwest 414 476 43,000  Level Kansas City Center
02:24PM 39.9389 -93.0953 243° Southwest 415 478 43,000  Level Kansas City Center
02:25PM 39.8764 -93.2567 243° Southwest 419 482 43,000  Level Kansas City Center
02:26PM 39.8256 -93.3917 244° Southwest 418 481 43,000  Level Kansas City Center
02:27PM 39.7719 -93.5250 242° Southwest 419 482 43,000  Level Kansas City Center
02:28PM 39.7183 -93.6578 242° Southwest 418 481 43,000  Level Kansas City Center
02:29PM 39.6619 -93.8028 243° Southwest 418 481 43,000  Level Kansas City Center
02:30PM 39.6108 -93.9314 243° Southwest 420 483 43,000  Level Kansas City Center
02:31PM 39.5508 -94.0817 243° Southwest 420 483 43,000 -360 Level Kansas City Center
02:32PM 39.4983 -94.2119 242° Southwest 424 488 42,300 -900 Descending Kansas City Center
02:33PM 39.4381 -94.3628 243° Southwest 423 487 41,200 -1,020 Descending Kansas City Center
02:34PM 39.3858 -94.4903 242° Southwest 419 482 40,200 -1,020 Descending Kansas City Center
02:35PM 39.3258 -94.6397 243° Southwest 418 481 39,100 -1,020 Descending Kansas City Center
02:36PM 39.2706 -94.7681 241° Southwest 424 488 38,100 -1,020 Descending Kansas City Center
02:37PM 39.2006 -94.9142 238° Southwest 438 504 37,000 -1,020 Descending Kansas City Center
02:38PM 39.1433 -95.0333 238° Southwest 409 471 36,100 -1,020 Descending Kansas City Center
02:40PM 39.0794 -95.1711 239° Southwest 421 484 35,000 -1,080 Descending Kansas City Center
02:41PM 39.0128 -95.3072 238° Southwest 421 484 33,900 -1,020 Descending Kansas City Center
02:42PM 38.9561 -95.4281 239° Southwest 420 483 33,000 -1,020 Descending Kansas City Center
02:43PM 38.8864 -95.5736 238° Southwest 427 491 31,900 -1,020 Descending Kansas City Center
02:44PM 38.8242 -95.7025 238° Southwest 441 507 30,900 -1,020 Descending Kansas City Center
02:45PM 38.7617 -95.8325 238° Southwest 446 513 29,900 -1,080 Descending Kansas City Center
02:46PM 38.6872 -95.9842 238° Southwest 449 517 28,800 -1,020 Descending Kansas City Center
02:47PM 38.6239 -96.1139 238° Southwest 449 517 27,900 -1,020 Descending Kansas City Center
02:48PM 38.5508 -96.2617 238° Southwest 440 506 26,700 -1,020 Descending Kansas City Center
02:49PM 38.4886 -96.3872 238° Southwest 437 503 25,800 -960 Descending Kansas City Center
02:50PM 38.4261 -96.5147 238° Southwest 435 501 24,800 -900 Descending Kansas City Center
02:51PM 38.3639 -96.6386 237° Southwest 419 482 24,000 -480 Descending Kansas City Center
02:52PM 38.3006 -96.7567 236° Southwest 401 461 24,000 -660 Level Kansas City Center
02:52PM 38.2608 -96.8406 239° Southwest 398 458 23,000 -2,040 Descending Kansas City Center
02:53PM 38.2325 -96.8997 239° Southwest 396 456 21,500 -3,000 Descending Kansas City Center
02:53PM 38.1961 -96.9683 236° Southwest 399 459 19,700 -2,940 Descending Kansas City Center
02:55PM 38.1361 -97.0844 237° Southwest 389 448 16,800 -2,700 Descending Kansas City Center
02:56PM 38.0767 -97.2031 238° Southwest 369 425 14,300 -2,160 Descending Kansas City Center
02:56PM 38.0778 -97.2500 272° West 378 435 13,600 -1,920 Descending Kansas City Center
02:57PM 38.0822 -97.3244 274° West 340 391 12,400 -1,980 Descending Kansas City Center
02:57PM 38.0817 -97.3653 269° West 334 384 11,600 -1,980 Descending Kansas City Center
02:58PM 38.0450 -97.4156 227° Southwest 286 329 10,400 -1,980 Descending Kansas City Center
02:58PM 38.0197 -97.4253 197° South 286 329 9,600 -1,800 Descending Kansas City Center
02:59PM 37.9506 -97.3814 153° Southeast 276 318 7,600 -1,800 Descending Kansas City Center
03:00PM 37.8739 -97.3414 158° South 250 288 5,900 -1,380 Descending Kansas City Center
03:01PM 37.8161 -97.3608 195° South 215 247 4,800 -1,320 Descending Kansas City Center
03:02PM 37.7606 -97.3897 202° Southwest 216 249 3,300 -1,200 Descending Kansas City Center
03:03PM 37.7089 -97.4128 199° South 208 239 2,400 -840 Descending Kansas City Center
03:04PM 37.6753 -97.4269 198° South 161 185 1,600 -480 Descending Kansas City Center
03:05PM 37.6447 -97.4436 203° Southwest 154 177 1,500 -120 Descending Kansas City Center
03:07PM 37.6499 -97.4331 202° Southwest  Level Estimated
03:14PM 37.6499 -97.4331 202° Southwest  Level Estimated
03:15PM 37.6499 -97.4331 202° Southwest  Level Estimated
03:16PM 37.6499 -97.4331 202° Southwest  Level Estimated